sensor_id;sensor_type;location;lat;lon;timestamp;temperature;humidity
35425;DHT22;21537;48.226;16.400;2022-07-12T00:02:05;16.70;94.90
35425;DHT22;21537;48.226;16.400;2022-07-12T00:04:31;16.80;95.10
35425;DHT22;21537;48.226;16.400;2022-07-12T00:06:57;16.70;95.00
35425;DHT22;21537;48.226;16.400;2022-07-12T00:09:23;16.70;95.00
35425;DHT22;21537;48.226;16.400;2022-07-12T00:11:49;16.80;95.10
35425;DHT22;21537;48.226;16.400;2022-07-12T00:14:15;16.80;95.10
35425;DHT22;21537;48.226;16.400;2022-07-12T00:16:41;16.80;95.20
35425;DHT22;21537;48.226;16.400;2022-07-12T00:19:06;16.70;95.20
35425;DHT22;21537;48.226;16.400;2022-07-12T00:21:32;16.70;95.30
35425;DHT22;21537;48.226;16.400;2022-07-12T00:23:58;16.70;95.40
35425;DHT22;21537;48.226;16.400;2022-07-12T00:26:24;16.80;95.40
35425;DHT22;21537;48.226;16.400;2022-07-12T00:28:50;16.70;95.50
35425;DHT22;21537;48.226;16.400;2022-07-12T00:31:16;16.70;95.60
35425;DHT22;21537;48.226;16.400;2022-07-12T00:33:42;16.70;95.70
35425;DHT22;21537;48.226;16.400;2022-07-12T00:36:08;16.70;95.70
35425;DHT22;21537;48.226;16.400;2022-07-12T00:38:34;16.70;95.80
35425;DHT22;21537;48.226;16.400;2022-07-12T00:40:59;16.70;95.80
35425;DHT22;21537;48.226;16.400;2022-07-12T00:43:25;16.70;95.90
35425;DHT22;21537;48.226;16.400;2022-07-12T00:45:51;16.70;95.90
35425;DHT22;21537;48.226;16.400;2022-07-12T00:48:18;16.70;95.90
35425;DHT22;21537;48.226;16.400;2022-07-12T00:50:46;16.60;96.10
35425;DHT22;21537;48.226;16.400;2022-07-12T00:53:13;16.60;96.70
35425;DHT22;21537;48.226;16.400;2022-07-12T00:55:39;16.50;97.10
35425;DHT22;21537;48.226;16.400;2022-07-12T00:58:04;16.50;97.50
35425;DHT22;21537;48.226;16.400;2022-07-12T01:00:30;16.40;98.70
35425;DHT22;21537;48.226;16.400;2022-07-12T01:03:00;16.40;99.10
35425;DHT22;21537;48.226;16.400;2022-07-12T01:05:27;16.30;99.40
35425;DHT22;21537;48.226;16.400;2022-07-12T01:07:55;16.30;98.80
35425;DHT22;21537;48.226;16.400;2022-07-12T01:10:21;16.30;98.80
35425;DHT22;21537;48.226;16.400;2022-07-12T01:12:47;16.30;99.10
35425;DHT22;21537;48.226;16.400;2022-07-12T01:15:13;16.20;99.60
35425;DHT22;21537;48.226;16.400;2022-07-12T01:17:39;16.20;99.70
35425;DHT22;21537;48.226;16.400;2022-07-12T01:20:06;16.20;99.90
35425;DHT22;21537;48.226;16.400;2022-07-12T01:22:34;16.10;99.90
35425;DHT22;21537;48.226;16.400;2022-07-12T01:25:02;16.10;99.90
35425;DHT22;21537;48.226;16.400;2022-07-12T01:27:28;16.10;99.90
35425;DHT22;21537;48.226;16.400;2022-07-12T01:29:55;16.00;99.90
35425;DHT22;21537;48.226;16.400;2022-07-12T01:32:21;16.00;99.90
35425;DHT22;21537;48.226;16.400;2022-07-12T01:34:51;16.00;99.90
35425;DHT22;21537;48.226;16.400;2022-07-12T01:37:18;16.00;99.90
35425;DHT22;21537;48.226;16.400;2022-07-12T01:39:45;15.90;99.90
35425;DHT22;21537;48.226;16.400;2022-07-12T01:42:11;16.00;99.90
35425;DHT22;21537;48.226;16.400;2022-07-12T01:44:37;16.00;99.90
35425;DHT22;21537;48.226;16.400;2022-07-12T01:47:03;16.00;99.90
35425;DHT22;21537;48.226;16.400;2022-07-12T01:49:29;16.00;99.90
35425;DHT22;21537;48.226;16.400;2022-07-12T01:51:55;16.00;99.90
35425;DHT22;21537;48.226;16.400;2022-07-12T01:54:21;15.90;99.90
35425;DHT22;21537;48.226;16.400;2022-07-12T01:56:47;15.80;99.90
35425;DHT22;21537;48.226;16.400;2022-07-12T01:59:14;15.80;99.90
35425;DHT22;21537;48.226;16.400;2022-07-12T02:01:39;15.80;99.90
35425;DHT22;21537;48.226;16.400;2022-07-12T02:04:06;15.80;99.90
35425;DHT22;21537;48.226;16.400;2022-07-12T02:06:33;15.80;99.90
35425;DHT22;21537;48.226;16.400;2022-07-12T02:09:00;15.80;99.90
35425;DHT22;21537;48.226;16.400;2022-07-12T02:11:26;15.80;99.90
35425;DHT22;21537;48.226;16.400;2022-07-12T02:13:52;15.80;99.90
35425;DHT22;21537;48.226;16.400;2022-07-12T02:16:17;15.80;99.90
35425;DHT22;21537;48.226;16.400;2022-07-12T02:18:43;15.80;99.90
35425;DHT22;21537;48.226;16.400;2022-07-12T02:21:09;15.70;99.90
35425;DHT22;21537;48.226;16.400;2022-07-12T02:23:35;15.70;99.90
35425;DHT22;21537;48.226;16.400;2022-07-12T02:26:01;15.70;99.90
35425;DHT22;21537;48.226;16.400;2022-07-12T02:28:27;15.70;99.90
35425;DHT22;21537;48.226;16.400;2022-07-12T02:30:53;15.70;99.90
35425;DHT22;21537;48.226;16.400;2022-07-12T02:33:19;15.70;99.90
35425;DHT22;21537;48.226;16.400;2022-07-12T02:35:45;15.70;99.90
35425;DHT22;21537;48.226;16.400;2022-07-12T02:38:11;15.70;99.90
35425;DHT22;21537;48.226;16.400;2022-07-12T02:40:37;15.70;99.90
35425;DHT22;21537;48.226;16.400;2022-07-12T02:43:25;15.60;99.90
35425;DHT22;21537;48.226;16.400;2022-07-12T02:46:01;15.60;99.90
35425;DHT22;21537;48.226;16.400;2022-07-12T02:48:28;15.60;99.90
35425;DHT22;21537;48.226;16.400;2022-07-12T02:50:54;15.60;99.90
35425;DHT22;21537;48.226;16.400;2022-07-12T02:53:19;15.50;99.90
35425;DHT22;21537;48.226;16.400;2022-07-12T02:55:45;15.40;99.90
35425;DHT22;21537;48.226;16.400;2022-07-12T02:58:11;15.40;99.90
35425;DHT22;21537;48.226;16.400;2022-07-12T03:00:38;15.40;99.90
35425;DHT22;21537;48.226;16.400;2022-07-12T03:03:04;15.30;99.90
35425;DHT22;21537;48.226;16.400;2022-07-12T03:05:34;15.30;99.90
35425;DHT22;21537;48.226;16.400;2022-07-12T03:08:01;15.30;99.90
35425;DHT22;21537;48.226;16.400;2022-07-12T03:10:26;15.30;99.90
35425;DHT22;21537;48.226;16.400;2022-07-12T03:12:52;15.30;99.90
35425;DHT22;21537;48.226;16.400;2022-07-12T03:15:18;15.30;99.90
35425;DHT22;21537;48.226;16.400;2022-07-12T03:17:44;15.30;99.90
35425;DHT22;21537;48.226;16.400;2022-07-12T03:20:10;15.30;99.90
35425;DHT22;21537;48.226;16.400;2022-07-12T03:22:37;15.40;99.90
35425;DHT22;21537;48.226;16.400;2022-07-12T03:25:04;15.40;99.90
35425;DHT22;21537;48.226;16.400;2022-07-12T03:27:30;15.40;99.90
35425;DHT22;21537;48.226;16.400;2022-07-12T03:29:58;15.50;99.90
35425;DHT22;21537;48.226;16.400;2022-07-12T03:32:26;15.60;99.90
35425;DHT22;21537;48.226;16.400;2022-07-12T03:34:52;15.70;99.90
35425;DHT22;21537;48.226;16.400;2022-07-12T03:37:18;15.70;99.90
35425;DHT22;21537;48.226;16.400;2022-07-12T03:39:44;15.80;99.90
35425;DHT22;21537;48.226;16.400;2022-07-12T03:42:10;15.90;99.90
35425;DHT22;21537;48.226;16.400;2022-07-12T03:44:38;15.90;99.90
35425;DHT22;21537;48.226;16.400;2022-07-12T03:47:04;16.00;99.90
35425;DHT22;21537;48.226;16.400;2022-07-12T03:49:31;16.10;99.90
35425;DHT22;21537;48.226;16.400;2022-07-12T03:51:57;16.10;99.90
35425;DHT22;21537;48.226;16.400;2022-07-12T03:54:23;16.20;99.90
35425;DHT22;21537;48.226;16.400;2022-07-12T03:56:49;16.20;99.90
35425;DHT22;21537;48.226;16.400;2022-07-12T03:59:33;16.30;99.90
35425;DHT22;21537;48.226;16.400;2022-07-12T04:02:00;16.30;99.90
35425;DHT22;21537;48.226;16.400;2022-07-12T04:04:28;16.40;99.90
35425;DHT22;21537;48.226;16.400;2022-07-12T04:06:54;16.50;99.90
35425;DHT22;21537;48.226;16.400;2022-07-12T04:09:20;16.60;99.90
35425;DHT22;21537;48.226;16.400;2022-07-12T04:11:46;16.70;99.90
35425;DHT22;21537;48.226;16.400;2022-07-12T04:14:12;16.80;99.90
35425;DHT22;21537;48.226;16.400;2022-07-12T04:16:38;16.90;99.90
35425;DHT22;21537;48.226;16.400;2022-07-12T04:19:04;17.00;99.90
35425;DHT22;21537;48.226;16.400;2022-07-12T04:21:35;17.00;99.90
35425;DHT22;21537;48.226;16.400;2022-07-12T04:24:04;17.10;99.90
35425;DHT22;21537;48.226;16.400;2022-07-12T04:26:31;17.10;99.90
35425;DHT22;21537;48.226;16.400;2022-07-12T04:28:57;17.10;99.90
35425;DHT22;21537;48.226;16.400;2022-07-12T04:31:24;17.10;99.90
35425;DHT22;21537;48.226;16.400;2022-07-12T04:33:50;17.00;99.90
35425;DHT22;21537;48.226;16.400;2022-07-12T04:36:16;17.00;99.90
35425;DHT22;21537;48.226;16.400;2022-07-12T04:38:42;17.00;99.90
35425;DHT22;21537;48.226;16.400;2022-07-12T04:41:08;17.10;99.90
35425;DHT22;21537;48.226;16.400;2022-07-12T04:43:34;17.10;99.90
35425;DHT22;21537;48.226;16.400;2022-07-12T04:46:08;17.20;99.90
35425;DHT22;21537;48.226;16.400;2022-07-12T04:48:34;17.20;99.90
35425;DHT22;21537;48.226;16.400;2022-07-12T04:51:01;17.30;99.90
35425;DHT22;21537;48.226;16.400;2022-07-12T04:53:27;17.60;99.90
35425;DHT22;21537;48.226;16.400;2022-07-12T04:55:57;17.90;99.90
35425;DHT22;21537;48.226;16.400;2022-07-12T04:58:23;18.00;99.90
35425;DHT22;21537;48.226;16.400;2022-07-12T05:00:50;18.00;99.90
35425;DHT22;21537;48.226;16.400;2022-07-12T05:03:19;18.00;99.90
35425;DHT22;21537;48.226;16.400;2022-07-12T05:05:45;18.10;99.90
35425;DHT22;21537;48.226;16.400;2022-07-12T05:08:11;18.20;99.90
35425;DHT22;21537;48.226;16.400;2022-07-12T05:10:37;18.20;99.90
35425;DHT22;21537;48.226;16.400;2022-07-12T05:13:04;18.50;99.90
35425;DHT22;21537;48.226;16.400;2022-07-12T05:15:30;18.80;99.90
35425;DHT22;21537;48.226;16.400;2022-07-12T05:17:56;19.00;99.90
35425;DHT22;21537;48.226;16.400;2022-07-12T05:20:22;18.90;99.90
35425;DHT22;21537;48.226;16.400;2022-07-12T05:22:48;18.90;99.90
35425;DHT22;21537;48.226;16.400;2022-07-12T05:25:14;18.90;99.90
35425;DHT22;21537;48.226;16.400;2022-07-12T05:27:41;19.00;99.90
35425;DHT22;21537;48.226;16.400;2022-07-12T05:30:07;19.00;99.90
35425;DHT22;21537;48.226;16.400;2022-07-12T05:32:33;19.00;99.90
35425;DHT22;21537;48.226;16.400;2022-07-12T05:34:59;19.00;99.90
35425;DHT22;21537;48.226;16.400;2022-07-12T05:37:25;19.10;99.90
35425;DHT22;21537;48.226;16.400;2022-07-12T05:39:54;19.10;99.90
35425;DHT22;21537;48.226;16.400;2022-07-12T05:42:20;19.50;99.90
35425;DHT22;21537;48.226;16.400;2022-07-12T05:44:46;19.90;99.90
35425;DHT22;21537;48.226;16.400;2022-07-12T05:47:12;20.10;99.90
35425;DHT22;21537;48.226;16.400;2022-07-12T05:49:38;20.20;99.50
35425;DHT22;21537;48.226;16.400;2022-07-12T05:52:04;20.30;99.90
35425;DHT22;21537;48.226;16.400;2022-07-12T05:54:49;20.30;99.30
35425;DHT22;21537;48.226;16.400;2022-07-12T05:57:16;20.40;99.30
35425;DHT22;21537;48.226;16.400;2022-07-12T05:59:43;20.40;99.20
35425;DHT22;21537;48.226;16.400;2022-07-12T06:02:09;20.50;97.20
35425;DHT22;21537;48.226;16.400;2022-07-12T06:04:35;20.50;96.20
35425;DHT22;21537;48.226;16.400;2022-07-12T06:07:02;20.50;96.00
35425;DHT22;21537;48.226;16.400;2022-07-12T06:09:29;20.60;95.50
35425;DHT22;21537;48.226;16.400;2022-07-12T06:11:54;20.60;95.00
35425;DHT22;21537;48.226;16.400;2022-07-12T06:14:20;20.60;95.40
35425;DHT22;21537;48.226;16.400;2022-07-12T06:16:46;20.70;94.90
35425;DHT22;21537;48.226;16.400;2022-07-12T06:19:12;20.70;95.50
35425;DHT22;21537;48.226;16.400;2022-07-12T06:21:38;20.80;94.90
35425;DHT22;21537;48.226;16.400;2022-07-12T06:24:04;20.80;94.80
35425;DHT22;21537;48.226;16.400;2022-07-12T06:26:30;20.80;93.50
35425;DHT22;21537;48.226;16.400;2022-07-12T06:28:56;20.90;93.90
35425;DHT22;21537;48.226;16.400;2022-07-12T06:31:21;21.00;93.20
35425;DHT22;21537;48.226;16.400;2022-07-12T06:33:49;21.10;92.50
35425;DHT22;21537;48.226;16.400;2022-07-12T06:36:15;21.20;91.40
35425;DHT22;21537;48.226;16.400;2022-07-12T06:38:41;21.00;90.50
35425;DHT22;21537;48.226;16.400;2022-07-12T06:41:07;21.10;90.90
35425;DHT22;21537;48.226;16.400;2022-07-12T06:43:33;21.10;90.90
35425;DHT22;21537;48.226;16.400;2022-07-12T06:45:59;21.10;91.00
35425;DHT22;21537;48.226;16.400;2022-07-12T06:48:25;21.30;91.10
35425;DHT22;21537;48.226;16.400;2022-07-12T06:50:51;21.50;90.20
35425;DHT22;21537;48.226;16.400;2022-07-12T06:53:17;21.60;89.30
35425;DHT22;21537;48.226;16.400;2022-07-12T06:55:43;21.80;89.10
35425;DHT22;21537;48.226;16.400;2022-07-12T06:58:10;22.00;89.00
35425;DHT22;21537;48.226;16.400;2022-07-12T07:00:36;22.10;89.50
35425;DHT22;21537;48.226;16.400;2022-07-12T07:03:05;22.30;88.80
35425;DHT22;21537;48.226;16.400;2022-07-12T07:05:31;22.30;87.70
35425;DHT22;21537;48.226;16.400;2022-07-12T07:07:57;22.30;86.70
35425;DHT22;21537;48.226;16.400;2022-07-12T07:10:22;22.30;88.40
35425;DHT22;21537;48.226;16.400;2022-07-12T07:12:48;22.30;89.00
35425;DHT22;21537;48.226;16.400;2022-07-12T07:15:14;22.30;89.60
35425;DHT22;21537;48.226;16.400;2022-07-12T07:17:42;22.40;90.00
35425;DHT22;21537;48.226;16.400;2022-07-12T07:20:09;22.50;89.40
35425;DHT22;21537;48.226;16.400;2022-07-12T07:22:38;22.60;89.20
35425;DHT22;21537;48.226;16.400;2022-07-12T07:25:04;22.80;89.10
35425;DHT22;21537;48.226;16.400;2022-07-12T07:27:31;22.80;90.20
35425;DHT22;21537;48.226;16.400;2022-07-12T07:29:56;23.00;89.30
35425;DHT22;21537;48.226;16.400;2022-07-12T07:32:41;23.20;88.60
35425;DHT22;21537;48.226;16.400;2022-07-12T07:35:07;23.20;88.40
35425;DHT22;21537;48.226;16.400;2022-07-12T07:37:35;23.20;88.90
35425;DHT22;21537;48.226;16.400;2022-07-12T07:40:01;23.30;88.40
35425;DHT22;21537;48.226;16.400;2022-07-12T07:42:28;23.40;87.10
35425;DHT22;21537;48.226;16.400;2022-07-12T07:44:54;23.20;86.30
35425;DHT22;21537;48.226;16.400;2022-07-12T07:47:20;23.30;86.60
35425;DHT22;21537;48.226;16.400;2022-07-12T07:49:46;23.20;86.80
35425;DHT22;21537;48.226;16.400;2022-07-12T07:52:12;23.30;88.10
35425;DHT22;21537;48.226;16.400;2022-07-12T07:54:38;23.40;88.10
35425;DHT22;21537;48.226;16.400;2022-07-12T07:57:04;23.70;87.80
35425;DHT22;21537;48.226;16.400;2022-07-12T07:59:30;23.60;86.70
35425;DHT22;21537;48.226;16.400;2022-07-12T08:01:56;23.60;86.50
35425;DHT22;21537;48.226;16.400;2022-07-12T08:04:22;23.50;87.80
35425;DHT22;21537;48.226;16.400;2022-07-12T08:06:48;23.50;88.10
35425;DHT22;21537;48.226;16.400;2022-07-12T08:09:15;23.60;87.20
35425;DHT22;21537;48.226;16.400;2022-07-12T08:11:41;23.50;88.20
35425;DHT22;21537;48.226;16.400;2022-07-12T08:14:08;23.50;88.40
35425;DHT22;21537;48.226;16.400;2022-07-12T08:16:35;23.60;88.30
35425;DHT22;21537;48.226;16.400;2022-07-12T08:19:01;23.80;88.10
35425;DHT22;21537;48.226;16.400;2022-07-12T08:21:27;24.10;87.30
35425;DHT22;21537;48.226;16.400;2022-07-12T08:23:53;24.20;85.60
35425;DHT22;21537;48.226;16.400;2022-07-12T08:26:20;24.10;85.90
35425;DHT22;21537;48.226;16.400;2022-07-12T08:28:46;24.20;86.30
35425;DHT22;21537;48.226;16.400;2022-07-12T08:31:11;24.00;87.00
35425;DHT22;21537;48.226;16.400;2022-07-12T08:33:41;23.90;85.10
35425;DHT22;21537;48.226;16.400;2022-07-12T08:36:08;24.00;85.50
35425;DHT22;21537;48.226;16.400;2022-07-12T08:38:37;24.10;84.20
35425;DHT22;21537;48.226;16.400;2022-07-12T08:41:07;24.00;83.80
35425;DHT22;21537;48.226;16.400;2022-07-12T08:43:36;24.00;83.60
35425;DHT22;21537;48.226;16.400;2022-07-12T08:46:06;24.10;84.40
35425;DHT22;21537;48.226;16.400;2022-07-12T08:48:33;24.10;84.20
35425;DHT22;21537;48.226;16.400;2022-07-12T08:51:00;24.30;82.80
35425;DHT22;21537;48.226;16.400;2022-07-12T08:53:27;24.10;81.60
35425;DHT22;21537;48.226;16.400;2022-07-12T08:55:53;24.00;82.10
35425;DHT22;21537;48.226;16.400;2022-07-12T08:58:18;24.00;83.10
35425;DHT22;21537;48.226;16.400;2022-07-12T09:00:45;24.10;82.40
35425;DHT22;21537;48.226;16.400;2022-07-12T09:03:10;24.20;82.20
35425;DHT22;21537;48.226;16.400;2022-07-12T09:05:51;24.20;81.60
35425;DHT22;21537;48.226;16.400;2022-07-12T09:08:17;24.40;80.00
35425;DHT22;21537;48.226;16.400;2022-07-12T09:13:16;24.70;79.20
35425;DHT22;21537;48.226;16.400;2022-07-12T09:15:42;24.70;80.90
35425;DHT22;21537;48.226;16.400;2022-07-12T09:18:09;24.60;80.10
35425;DHT22;21537;48.226;16.400;2022-07-12T09:20:41;24.70;79.50
35425;DHT22;21537;48.226;16.400;2022-07-12T09:23:12;25.10;77.10
35425;DHT22;21537;48.226;16.400;2022-07-12T09:25:47;25.20;78.00
35425;DHT22;21537;48.226;16.400;2022-07-12T09:28:15;25.40;77.20
35425;DHT22;21537;48.226;16.400;2022-07-12T09:30:48;25.60;75.70
35425;DHT22;21537;48.226;16.400;2022-07-12T09:33:18;25.70;75.10
35425;DHT22;21537;48.226;16.400;2022-07-12T09:36:05;25.80;72.10
35425;DHT22;21537;48.226;16.400;2022-07-12T09:38:51;26.00;69.90
35425;DHT22;21537;48.226;16.400;2022-07-12T09:41:27;26.20;72.40
35425;DHT22;21537;48.226;16.400;2022-07-12T09:43:53;26.20;74.30
35425;DHT22;21537;48.226;16.400;2022-07-12T09:46:19;26.50;73.30
35425;DHT22;21537;48.226;16.400;2022-07-12T09:48:46;26.90;72.90
35425;DHT22;21537;48.226;16.400;2022-07-12T09:51:17;27.00;71.60
35425;DHT22;21537;48.226;16.400;2022-07-12T09:53:49;27.10;70.40
35425;DHT22;21537;48.226;16.400;2022-07-12T09:56:18;27.20;70.50
35425;DHT22;21537;48.226;16.400;2022-07-12T10:01:17;26.90;67.50
35425;DHT22;21537;48.226;16.400;2022-07-12T10:03:44;26.80;68.00
35425;DHT22;21537;48.226;16.400;2022-07-12T10:06:12;26.60;67.70
35425;DHT22;21537;48.226;16.400;2022-07-12T10:08:38;26.90;67.00
35425;DHT22;21537;48.226;16.400;2022-07-12T10:11:05;26.80;66.80
35425;DHT22;21537;48.226;16.400;2022-07-12T10:13:31;26.80;66.80
35425;DHT22;21537;48.226;16.400;2022-07-12T10:16:02;26.60;66.50
35425;DHT22;21537;48.226;16.400;2022-07-12T10:18:29;26.20;66.40
35425;DHT22;21537;48.226;16.400;2022-07-12T10:20:55;25.90;66.10
35425;DHT22;21537;48.226;16.400;2022-07-12T10:23:31;25.70;66.40
35425;DHT22;21537;48.226;16.400;2022-07-12T10:31:32;25.50;67.30
35425;DHT22;21537;48.226;16.400;2022-07-12T10:34:09;25.90;67.90
35425;DHT22;21537;48.226;16.400;2022-07-12T10:39:30;27.20;66.20
35425;DHT22;21537;48.226;16.400;2022-07-12T10:44:39;26.60;66.50
35425;DHT22;21537;48.226;16.400;2022-07-12T10:47:07;26.50;67.10
35425;DHT22;21537;48.226;16.400;2022-07-12T10:49:35;26.20;65.10
35425;DHT22;21537;48.226;16.400;2022-07-12T10:54:42;25.50;64.80
35425;DHT22;21537;48.226;16.400;2022-07-12T10:57:08;25.20;65.10
35425;DHT22;21537;48.226;16.400;2022-07-12T10:59:36;25.00;67.00
35425;DHT22;21537;48.226;16.400;2022-07-12T11:02:02;24.90;66.00
35425;DHT22;21537;48.226;16.400;2022-07-12T11:04:28;24.70;68.10
35425;DHT22;21537;48.226;16.400;2022-07-12T11:06:55;24.40;69.10
35425;DHT22;21537;48.226;16.400;2022-07-12T11:09:23;24.40;69.70
35425;DHT22;21537;48.226;16.400;2022-07-12T11:11:52;24.40;70.30
35425;DHT22;21537;48.226;16.400;2022-07-12T11:14:27;24.30;71.30
35425;DHT22;21537;48.226;16.400;2022-07-12T11:16:58;24.20;71.50
35425;DHT22;21537;48.226;16.400;2022-07-12T11:19:27;24.20;71.80
35425;DHT22;21537;48.226;16.400;2022-07-12T11:21:54;24.10;72.00
35425;DHT22;21537;48.226;16.400;2022-07-12T11:24:27;24.00;72.30
35425;DHT22;21537;48.226;16.400;2022-07-12T11:26:53;24.00;70.70
35425;DHT22;21537;48.226;16.400;2022-07-12T11:29:19;24.00;70.60
35425;DHT22;21537;48.226;16.400;2022-07-12T11:31:46;23.70;69.50
35425;DHT22;21537;48.226;16.400;2022-07-12T11:34:22;23.40;70.50
35425;DHT22;21537;48.226;16.400;2022-07-12T11:36:54;23.30;71.70
35425;DHT22;21537;48.226;16.400;2022-07-12T11:39:34;23.20;72.20
35425;DHT22;21537;48.226;16.400;2022-07-12T11:42:01;23.30;72.90
35425;DHT22;21537;48.226;16.400;2022-07-12T11:47:07;23.40;73.60
35425;DHT22;21537;48.226;16.400;2022-07-12T11:49:33;23.40;72.80
35425;DHT22;21537;48.226;16.400;2022-07-12T11:51:59;23.40;73.30
35425;DHT22;21537;48.226;16.400;2022-07-12T11:54:25;23.50;73.80
35425;DHT22;21537;48.226;16.400;2022-07-12T11:57:05;23.60;73.50
35425;DHT22;21537;48.226;16.400;2022-07-12T11:59:31;23.90;73.20
35425;DHT22;21537;48.226;16.400;2022-07-12T12:02:10;24.20;73.00
35425;DHT22;21537;48.226;16.400;2022-07-12T12:04:54;24.50;72.10
35425;DHT22;21537;48.226;16.400;2022-07-12T12:07:21;25.20;71.00
35425;DHT22;21537;48.226;16.400;2022-07-12T12:10:15;26.20;69.30
35425;DHT22;21537;48.226;16.400;2022-07-12T12:12:54;27.20;65.90
35425;DHT22;21537;48.226;16.400;2022-07-12T12:15:27;27.50;65.80
35425;DHT22;21537;48.226;16.400;2022-07-12T12:17:54;27.20;64.70
35425;DHT22;21537;48.226;16.400;2022-07-12T12:20:22;26.60;65.10
35425;DHT22;21537;48.226;16.400;2022-07-12T12:22:50;26.00;66.00
35425;DHT22;21537;48.226;16.400;2022-07-12T12:25:17;25.60;67.70
35425;DHT22;21537;48.226;16.400;2022-07-12T12:28:09;25.30;68.10
35425;DHT22;21537;48.226;16.400;2022-07-12T12:30:47;25.00;68.90
35425;DHT22;21537;48.226;16.400;2022-07-12T12:33:32;24.80;68.70
35425;DHT22;21537;48.226;16.400;2022-07-12T12:36:11;24.50;70.20
35425;DHT22;21537;48.226;16.400;2022-07-12T12:38:37;24.20;71.10
35425;DHT22;21537;48.226;16.400;2022-07-12T12:41:03;24.20;70.70
35425;DHT22;21537;48.226;16.400;2022-07-12T12:43:30;24.20;70.60
35425;DHT22;21537;48.226;16.400;2022-07-12T12:45:58;24.20;70.20
35425;DHT22;21537;48.226;16.400;2022-07-12T12:48:25;24.20;71.20
35425;DHT22;21537;48.226;16.400;2022-07-12T12:50:53;24.40;70.50
35425;DHT22;21537;48.226;16.400;2022-07-12T12:53:21;24.60;69.80
35425;DHT22;21537;48.226;16.400;2022-07-12T12:55:50;24.70;69.60
35425;DHT22;21537;48.226;16.400;2022-07-12T12:58:17;24.80;70.00
35425;DHT22;21537;48.226;16.400;2022-07-12T13:00:46;25.10;68.10
35425;DHT22;21537;48.226;16.400;2022-07-12T13:03:13;25.30;68.10
35425;DHT22;21537;48.226;16.400;2022-07-12T13:05:40;25.20;68.80
35425;DHT22;21537;48.226;16.400;2022-07-12T13:08:07;25.00;68.60
35425;DHT22;21537;48.226;16.400;2022-07-12T13:10:34;24.90;68.20
35425;DHT22;21537;48.226;16.400;2022-07-12T13:13:02;24.80;68.70
35425;DHT22;21537;48.226;16.400;2022-07-12T13:15:29;24.70;69.10
35425;DHT22;21537;48.226;16.400;2022-07-12T13:17:55;24.60;69.00
35425;DHT22;21537;48.226;16.400;2022-07-12T13:20:25;24.60;69.90
35425;DHT22;21537;48.226;16.400;2022-07-12T13:22:52;24.60;69.90
35425;DHT22;21537;48.226;16.400;2022-07-12T13:25:18;24.40;70.80
35425;DHT22;21537;48.226;16.400;2022-07-12T13:27:45;24.30;71.30
35425;DHT22;21537;48.226;16.400;2022-07-12T13:30:13;24.40;71.00
35425;DHT22;21537;48.226;16.400;2022-07-12T13:32:40;24.60;70.70
35425;DHT22;21537;48.226;16.400;2022-07-12T13:35:07;24.90;70.40
35425;DHT22;21537;48.226;16.400;2022-07-12T13:37:35;25.10;70.20
35425;DHT22;21537;48.226;16.400;2022-07-12T13:40:01;25.30;69.80
35425;DHT22;21537;48.226;16.400;2022-07-12T13:42:38;26.40;68.90
35425;DHT22;21537;48.226;16.400;2022-07-12T13:45:04;27.80;67.10
35425;DHT22;21537;48.226;16.400;2022-07-12T13:47:30;29.30;65.50
35425;DHT22;21537;48.226;16.400;2022-07-12T13:49:56;31.00;63.70
35425;DHT22;21537;48.226;16.400;2022-07-12T13:52:22;31.80;61.20
35425;DHT22;21537;48.226;16.400;2022-07-12T13:54:48;33.10;59.60
35425;DHT22;21537;48.226;16.400;2022-07-12T13:57:14;34.30;57.70
35425;DHT22;21537;48.226;16.400;2022-07-12T13:59:40;35.00;55.50
35425;DHT22;21537;48.226;16.400;2022-07-12T14:02:06;35.80;55.00
35425;DHT22;21537;48.226;16.400;2022-07-12T14:04:32;36.10;53.10
35425;DHT22;21537;48.226;16.400;2022-07-12T14:06:58;35.30;53.30
35425;DHT22;21537;48.226;16.400;2022-07-12T14:09:24;35.40;53.20
35425;DHT22;21537;48.226;16.400;2022-07-12T14:11:50;35.20;53.00
35425;DHT22;21537;48.226;16.400;2022-07-12T14:14:16;35.90;52.60
35425;DHT22;21537;48.226;16.400;2022-07-12T14:16:43;36.20;52.20
35425;DHT22;21537;48.226;16.400;2022-07-12T14:19:09;35.60;51.20
35425;DHT22;21537;48.226;16.400;2022-07-12T14:21:35;33.90;52.10
35425;DHT22;21537;48.226;16.400;2022-07-12T14:24:00;33.30;52.90
35425;DHT22;21537;48.226;16.400;2022-07-12T14:26:27;33.40;53.20
35425;DHT22;21537;48.226;16.400;2022-07-12T14:28:53;34.30;52.40
35425;DHT22;21537;48.226;16.400;2022-07-12T14:31:19;34.50;52.50
35425;DHT22;21537;48.226;16.400;2022-07-12T14:33:45;35.30;52.10
35425;DHT22;21537;48.226;16.400;2022-07-12T14:36:11;36.10;51.40
35425;DHT22;21537;48.226;16.400;2022-07-12T14:38:37;36.50;50.30
35425;DHT22;21537;48.226;16.400;2022-07-12T14:41:03;37.10;49.10
35425;DHT22;21537;48.226;16.400;2022-07-12T14:43:29;35.90;48.30
35425;DHT22;21537;48.226;16.400;2022-07-12T14:45:55;35.40;49.20
35425;DHT22;21537;48.226;16.400;2022-07-12T14:48:21;35.80;49.40
35425;DHT22;21537;48.226;16.400;2022-07-12T14:50:47;36.10;49.20
35425;DHT22;21537;48.226;16.400;2022-07-12T14:53:13;35.90;48.60
35425;DHT22;21537;48.226;16.400;2022-07-12T14:55:39;36.10;49.20
35425;DHT22;21537;48.226;16.400;2022-07-12T14:58:06;36.90;47.50
35425;DHT22;21537;48.226;16.400;2022-07-12T15:00:35;36.50;47.10
35425;DHT22;21537;48.226;16.400;2022-07-12T15:03:01;36.00;46.80
35425;DHT22;21537;48.226;16.400;2022-07-12T15:05:28;35.60;47.00
35425;DHT22;21537;48.226;16.400;2022-07-12T15:07:54;35.30;46.80
35425;DHT22;21537;48.226;16.400;2022-07-12T15:10:20;34.90;47.40
35425;DHT22;21537;48.226;16.400;2022-07-12T15:12:46;34.90;47.50
35425;DHT22;21537;48.226;16.400;2022-07-12T15:15:12;35.30;48.00
35425;DHT22;21537;48.226;16.400;2022-07-12T15:17:38;35.40;47.00
35425;DHT22;21537;48.226;16.400;2022-07-12T15:20:04;35.50;47.00
35425;DHT22;21537;48.226;16.400;2022-07-12T15:22:31;34.50;46.60
35425;DHT22;21537;48.226;16.400;2022-07-12T15:24:57;33.40;47.80
35425;DHT22;21537;48.226;16.400;2022-07-12T15:27:23;32.90;48.10
35425;DHT22;21537;48.226;16.400;2022-07-12T15:29:50;33.60;48.60
35425;DHT22;21537;48.226;16.400;2022-07-12T15:32:17;33.50;48.20
35425;DHT22;21537;48.226;16.400;2022-07-12T15:34:43;33.00;48.30
35425;DHT22;21537;48.226;16.400;2022-07-12T15:37:09;31.20;50.10
35425;DHT22;21537;48.226;16.400;2022-07-12T15:39:35;30.30;51.40